sensor_id;sensor_type;location;lat;lon;timestamp;temperature;humidity
79049;DHT22;68680;50.764;6.120;2023-11-19T00:00:07;11.30;99.90
79049;DHT22;68680;50.764;6.120;2023-11-19T00:02:32;11.30;99.90
79049;DHT22;68680;50.764;6.120;2023-11-19T00:04:58;11.30;99.90
79049;DHT22;68680;50.764;6.120;2023-11-19T00:07:23;11.30;99.90
79049;DHT22;68680;50.764;6.120;2023-11-19T00:09:49;11.30;99.90
79049;DHT22;68680;50.764;6.120;2023-11-19T00:12:15;11.30;99.90
79049;DHT22;68680;50.764;6.120;2023-11-19T00:14:42;11.30;99.90
79049;DHT22;68680;50.764;6.120;2023-11-19T00:17:07;11.30;99.90
79049;DHT22;68680;50.764;6.120;2023-11-19T00:19:33;11.30;99.90
79049;DHT22;68680;50.764;6.120;2023-11-19T00:21:58;11.40;99.90
79049;DHT22;68680;50.764;6.120;2023-11-19T00:24:24;11.40;99.90
79049;DHT22;68680;50.764;6.120;2023-11-19T00:26:49;11.40;99.90
79049;DHT22;68680;50.764;6.120;2023-11-19T00:29:15;11.30;99.90
79049;DHT22;68680;50.764;6.120;2023-11-19T00:31:42;11.40;99.90
79049;DHT22;68680;50.764;6.120;2023-11-19T00:34:08;11.40;99.90
79049;DHT22;68680;50.764;6.120;2023-11-19T00:36:33;11.50;99.90
79049;DHT22;68680;50.764;6.120;2023-11-19T00:38:59;11.40;99.90
79049;DHT22;68680;50.764;6.120;2023-11-19T00:41:24;11.50;99.90
79049;DHT22;68680;50.764;6.120;2023-11-19T00:43:50;11.50;99.90
79049;DHT22;68680;50.764;6.120;2023-11-19T00:46:15;11.60;99.90
79049;DHT22;68680;50.764;6.120;2023-11-19T00:48:43;11.60;99.90
79049;DHT22;68680;50.764;6.120;2023-11-19T00:51:11;11.70;99.90
79049;DHT22;68680;50.764;6.120;2023-11-19T00:53:37;11.70;99.90
79049;DHT22;68680;50.764;6.120;2023-11-19T00:56:03;11.70;99.90
79049;DHT22;68680;50.764;6.120;2023-11-19T00:58:29;11.70;99.90
79049;DHT22;68680;50.764;6.120;2023-11-19T01:00:54;11.70;99.90
79049;DHT22;68680;50.764;6.120;2023-11-19T01:03:20;11.70;99.90
79049;DHT22;68680;50.764;6.120;2023-11-19T01:05:47;11.70;99.90
79049;DHT22;68680;50.764;6.120;2023-11-19T01:08:12;11.70;99.90
79049;DHT22;68680;50.764;6.120;2023-11-19T01:10:38;11.70;99.90
79049;DHT22;68680;50.764;6.120;2023-11-19T01:13:03;11.80;99.90
79049;DHT22;68680;50.764;6.120;2023-11-19T01:15:29;11.80;99.90
79049;DHT22;68680;50.764;6.120;2023-11-19T01:17:55;11.80;99.90
79049;DHT22;68680;50.764;6.120;2023-11-19T01:20:20;11.80;99.90
79049;DHT22;68680;50.764;6.120;2023-11-19T01:22:47;11.80;99.90
79049;DHT22;68680;50.764;6.120;2023-11-19T01:25:13;11.80;99.90
79049;DHT22;68680;50.764;6.120;2023-11-19T01:27:38;11.80;99.90
79049;DHT22;68680;50.764;6.120;2023-11-19T01:30:05;11.80;99.90
79049;DHT22;68680;50.764;6.120;2023-11-19T01:32:31;11.90;99.90
79049;DHT22;68680;50.764;6.120;2023-11-19T01:34:57;11.80;99.90
79049;DHT22;68680;50.764;6.120;2023-11-19T01:37:22;11.90;99.90
79049;DHT22;68680;50.764;6.120;2023-11-19T01:39:49;12.00;99.90
79049;DHT22;68680;50.764;6.120;2023-11-19T01:42:15;11.90;99.90
79049;DHT22;68680;50.764;6.120;2023-11-19T01:44:40;11.90;99.90
79049;DHT22;68680;50.764;6.120;2023-11-19T01:47:06;11.90;99.90
79049;DHT22;68680;50.764;6.120;2023-11-19T01:49:32;11.90;99.90
79049;DHT22;68680;50.764;6.120;2023-11-19T01:51:58;11.90;99.90
79049;DHT22;68680;50.764;6.120;2023-11-19T01:54:24;11.90;99.90
79049;DHT22;68680;50.764;6.120;2023-11-19T01:56:53;11.90;99.90
79049;DHT22;68680;50.764;6.120;2023-11-19T01:59:19;11.90;99.90
79049;DHT22;68680;50.764;6.120;2023-11-19T02:01:44;11.90;99.90
79049;DHT22;68680;50.764;6.120;2023-11-19T02:04:11;11.80;99.90
79049;DHT22;68680;50.764;6.120;2023-11-19T02:06:39;11.80;99.90
79049;DHT22;68680;50.764;6.120;2023-11-19T02:09:05;11.90;99.90
79049;DHT22;68680;50.764;6.120;2023-11-19T02:11:31;11.90;99.90
79049;DHT22;68680;50.764;6.120;2023-11-19T02:13:58;12.00;99.90
79049;DHT22;68680;50.764;6.120;2023-11-19T02:16:24;12.00;99.90
79049;DHT22;68680;50.764;6.120;2023-11-19T02:18:49;11.90;99.90
79049;DHT22;68680;50.764;6.120;2023-11-19T02:21:15;11.90;99.90
79049;DHT22;68680;50.764;6.120;2023-11-19T02:23:41;11.80;99.90
79049;DHT22;68680;50.764;6.120;2023-11-19T02:26:13;11.90;99.90
79049;DHT22;68680;50.764;6.120;2023-11-19T02:28:41;11.90;99.90
79049;DHT22;68680;50.764;6.120;2023-11-19T02:31:07;12.00;99.90
79049;DHT22;68680;50.764;6.120;2023-11-19T02:33:33;12.00;99.90
79049;DHT22;68680;50.764;6.120;2023-11-19T02:35:58;12.00;99.90
79049;DHT22;68680;50.764;6.120;2023-11-19T02:38:24;12.00;99.90
79049;DHT22;68680;50.764;6.120;2023-11-19T02:40:50;11.90;99.90
79049;DHT22;68680;50.764;6.120;2023-11-19T02:43:15;11.90;99.90
79049;DHT22;68680;50.764;6.120;2023-11-19T02:45:42;11.90;99.90
79049;DHT22;68680;50.764;6.120;2023-11-19T02:48:08;11.90;99.90
79049;DHT22;68680;50.764;6.120;2023-11-19T02:50:34;11.90;99.90
79049;DHT22;68680;50.764;6.120;2023-11-19T02:52:59;11.90;99.90
79049;DHT22;68680;50.764;6.120;2023-11-19T02:55:25;11.90;99.90
79049;DHT22;68680;50.764;6.120;2023-11-19T02:57:51;11.90;99.90
79049;DHT22;68680;50.764;6.120;2023-11-19T03:00:18;11.90;99.90
79049;DHT22;68680;50.764;6.120;2023-11-19T03:02:45;11.90;99.90
79049;DHT22;68680;50.764;6.120;2023-11-19T03:05:11;11.90;99.90
79049;DHT22;68680;50.764;6.120;2023-11-19T03:07:36;12.00;99.90
79049;DHT22;68680;50.764;6.120;2023-11-19T03:10:02;11.90;99.90
79049;DHT22;68680;50.764;6.120;2023-11-19T03:12:28;11.90;99.90
79049;DHT22;68680;50.764;6.120;2023-11-19T03:14:54;11.90;99.90
79049;DHT22;68680;50.764;6.120;2023-11-19T03:17:20;11.90;99.90
79049;DHT22;68680;50.764;6.120;2023-11-19T03:19:47;11.90;99.90
79049;DHT22;68680;50.764;6.120;2023-11-19T03:22:12;12.00;99.90
79049;DHT22;68680;50.764;6.120;2023-11-19T03:24:38;12.10;99.90
79049;DHT22;68680;50.764;6.120;2023-11-19T03:27:04;12.10;99.90
79049;DHT22;68680;50.764;6.120;2023-11-19T03:29:29;12.10;99.90
79049;DHT22;68680;50.764;6.120;2023-11-19T03:31:55;12.00;99.90
79049;DHT22;68680;50.764;6.120;2023-11-19T03:34:21;12.00;99.90
79049;DHT22;68680;50.764;6.120;2023-11-19T03:36:48;11.90;99.90
79049;DHT22;68680;50.764;6.120;2023-11-19T03:39:13;11.90;99.90
79049;DHT22;68680;50.764;6.120;2023-11-19T03:41:39;11.90;99.90
79049;DHT22;68680;50.764;6.120;2023-11-19T03:44:05;11.90;99.90
79049;DHT22;68680;50.764;6.120;2023-11-19T03:46:30;11.90;99.90
79049;DHT22;68680;50.764;6.120;2023-11-19T03:48:56;11.90;99.90
79049;DHT22;68680;50.764;6.120;2023-11-19T03:51:21;11.90;99.90
79049;DHT22;68680;50.764;6.120;2023-11-19T03:53:48;11.90;99.90
79049;DHT22;68680;50.764;6.120;2023-11-19T03:56:14;11.90;99.90
79049;DHT22;68680;50.764;6.120;2023-11-19T03:58:40;12.00;99.90
79049;DHT22;68680;50.764;6.120;2023-11-19T04:01:06;12.10;99.90
79049;DHT22;68680;50.764;6.120;2023-11-19T04:03:31;12.10;99.90
79049;DHT22;68680;50.764;6.120;2023-11-19T04:05:57;12.10;99.90
79049;DHT22;68680;50.764;6.120;2023-11-19T04:08:23;12.10;99.90
79049;DHT22;68680;50.764;6.120;2023-11-19T04:10:50;12.10;99.90
79049;DHT22;68680;50.764;6.120;2023-11-19T04:13:15;12.10;99.90
79049;DHT22;68680;50.764;6.120;2023-11-19T04:15:41;12.20;99.90
79049;DHT22;68680;50.764;6.120;2023-11-19T04:18:06;12.20;99.90
79049;DHT22;68680;50.764;6.120;2023-11-19T04:20:32;12.20;99.90
79049;DHT22;68680;50.764;6.120;2023-11-19T04:22:58;12.10;99.90
79049;DHT22;68680;50.764;6.120;2023-11-19T04:25:23;12.10;99.90
79049;DHT22;68680;50.764;6.120;2023-11-19T04:27:50;12.00;99.90
79049;DHT22;68680;50.764;6.120;2023-11-19T04:30:16;11.90;99.90
79049;DHT22;68680;50.764;6.120;2023-11-19T04:32:42;11.90;99.90
79049;DHT22;68680;50.764;6.120;2023-11-19T04:35:08;11.80;99.90
79049;DHT22;68680;50.764;6.120;2023-11-19T04:37:33;11.80;99.90
79049;DHT22;68680;50.764;6.120;2023-11-19T04:39:59;11.80;99.90
79049;DHT22;68680;50.764;6.120;2023-11-19T04:42:25;11.70;99.90
79049;DHT22;68680;50.764;6.120;2023-11-19T04:44:51;11.80;99.90
79049;DHT22;68680;50.764;6.120;2023-11-19T04:47:17;11.80;99.90
79049;DHT22;68680;50.764;6.120;2023-11-19T04:49:43;11.80;99.90
79049;DHT22;68680;50.764;6.120;2023-11-19T04:52:08;11.80;99.90
79049;DHT22;68680;50.764;6.120;2023-11-19T04:54:34;11.90;99.90
79049;DHT22;68680;50.764;6.120;2023-11-19T04:57:00;11.90;99.90
79049;DHT22;68680;50.764;6.120;2023-11-19T04:59:25;11.90;99.90
79049;DHT22;68680;50.764;6.120;2023-11-19T05:01:52;11.80;99.90
79049;DHT22;68680;50.764;6.120;2023-11-19T05:04:18;11.70;99.90
79049;DHT22;68680;50.764;6.120;2023-11-19T05:06:43;11.70;99.90
79049;DHT22;68680;50.764;6.120;2023-11-19T05:09:09;11.80;99.90
79049;DHT22;68680;50.764;6.120;2023-11-19T05:11:35;11.70;99.90
79049;DHT22;68680;50.764;6.120;2023-11-19T05:14:02;11.70;99.90
79049;DHT22;68680;50.764;6.120;2023-11-19T05:16:27;11.80;99.90
79049;DHT22;68680;50.764;6.120;2023-11-19T05:18:54;11.80;99.90
79049;DHT22;68680;50.764;6.120;2023-11-19T05:21:20;11.90;99.90
79049;DHT22;68680;50.764;6.120;2023-11-19T05:23:45;11.90;99.90
79049;DHT22;68680;50.764;6.120;2023-11-19T05:26:17;11.80;99.90
79049;DHT22;68680;50.764;6.120;2023-11-19T05:28:43;11.80;99.90
79049;DHT22;68680;50.764;6.120;2023-11-19T05:31:08;11.80;99.90
79049;DHT22;68680;50.764;6.120;2023-11-19T05:33:34;11.80;99.90
79049;DHT22;68680;50.764;6.120;2023-11-19T05:36:01;11.80;99.90
79049;DHT22;68680;50.764;6.120;2023-11-19T05:38:27;11.70;99.90
79049;DHT22;68680;50.764;6.120;2023-11-19T05:40:52;11.80;99.90
79049;DHT22;68680;50.764;6.120;2023-11-19T05:43:18;11.80;99.90
79049;DHT22;68680;50.764;6.120;2023-11-19T05:45:43;11.80;99.90
79049;DHT22;68680;50.764;6.120;2023-11-19T05:48:09;11.80;99.90
79049;DHT22;68680;50.764;6.120;2023-11-19T05:50:34;11.80;99.90
79049;DHT22;68680;50.764;6.120;2023-11-19T05:53:01;11.80;99.90
79049;DHT22;68680;50.764;6.120;2023-11-19T05:55:27;11.80;99.90
79049;DHT22;68680;50.764;6.120;2023-11-19T05:57:52;11.80;99.90
79049;DHT22;68680;50.764;6.120;2023-11-19T06:00:18;11.80;99.90
79049;DHT22;68680;50.764;6.120;2023-11-19T06:02:44;11.80;99.90
79049;DHT22;68680;50.764;6.120;2023-11-19T06:05:09;11.70;99.90
79049;DHT22;68680;50.764;6.120;2023-11-19T06:07:35;11.80;99.90
79049;DHT22;68680;50.764;6.120;2023-11-19T06:10:02;11.80;99.90
79049;DHT22;68680;50.764;6.120;2023-11-19T06:12:28;11.80;99.90
79049;DHT22;68680;50.764;6.120;2023-11-19T06:14:54;11.80;99.90
79049;DHT22;68680;50.764;6.120;2023-11-19T06:17:19;11.80;99.90
79049;DHT22;68680;50.764;6.120;2023-11-19T06:19:45;11.70;99.90
79049;DHT22;68680;50.764;6.120;2023-11-19T06:22:11;11.70;99.90
79049;DHT22;68680;50.764;6.120;2023-11-19T06:24:36;11.60;99.90
79049;DHT22;68680;50.764;6.120;2023-11-19T06:27:03;11.60;99.90
79049;DHT22;68680;50.764;6.120;2023-11-19T06:29:29;11.60;99.90
79049;DHT22;68680;50.764;6.120;2023-11-19T06:31:55;11.60;99.90
79049;DHT22;68680;50.764;6.120;2023-11-19T06:34:20;11.50;99.90
79049;DHT22;68680;50.764;6.120;2023-11-19T06:36:46;11.60;99.90
79049;DHT22;68680;50.764;6.120;2023-11-19T06:39:11;11.60;99.90
79049;DHT22;68680;50.764;6.120;2023-11-19T06:41:37;11.50;99.90
79049;DHT22;68680;50.764;6.120;2023-11-19T06:44:04;11.60;99.90
79049;DHT22;68680;50.764;6.120;2023-11-19T06:46:30;11.60;99.90
79049;DHT22;68680;50.764;6.120;2023-11-19T06:48:56;11.60;99.90
79049;DHT22;68680;50.764;6.120;2023-11-19T06:51:21;11.60;99.90
79049;DHT22;68680;50.764;6.120;2023-11-19T06:53:47;11.60;99.90
79049;DHT22;68680;50.764;6.120;2023-11-19T06:56:20;11.50;99.90
79049;DHT22;68680;50.764;6.120;2023-11-19T06:58:46;11.50;99.90
79049;DHT22;68680;50.764;6.120;2023-11-19T07:01:13;11.50;99.90
79049;DHT22;68680;50.764;6.120;2023-11-19T07:03:38;11.40;99.90
79049;DHT22;68680;50.764;6.120;2023-11-19T07:06:04;11.10;99.90
79049;DHT22;68680;50.764;6.120;2023-11-19T07:08:30;11.00;99.90
79049;DHT22;68680;50.764;6.120;2023-11-19T07:10:56;10.80;99.90
79049;DHT22;68680;50.764;6.120;2023-11-19T07:13:21;10.80;99.90
79049;DHT22;68680;50.764;6.120;2023-11-19T07:15:47;10.70;99.90
79049;DHT22;68680;50.764;6.120;2023-11-19T07:18:14;10.70;99.90
79049;DHT22;68680;50.764;6.120;2023-11-19T07:20:39;10.70;99.90
79049;DHT22;68680;50.764;6.120;2023-11-19T07:23:05;10.70;99.90
79049;DHT22;68680;50.764;6.120;2023-11-19T07:25:31;10.70;99.90
79049;DHT22;68680;50.764;6.120;2023-11-19T07:27:56;10.80;99.90
79049;DHT22;68680;50.764;6.120;2023-11-19T07:30:22;10.80;99.90
79049;DHT22;68680;50.764;6.120;2023-11-19T07:32:48;10.80;99.90
79049;DHT22;68680;50.764;6.120;2023-11-19T07:35:15;10.80;99.90
79049;DHT22;68680;50.764;6.120;2023-11-19T07:37:40;10.80;99.90
79049;DHT22;68680;50.764;6.120;2023-11-19T07:40:07;10.80;99.90
79049;DHT22;68680;50.764;6.120;2023-11-19T07:42:33;10.80;99.90
79049;DHT22;68680;50.764;6.120;2023-11-19T07:44:58;10.70;99.90
79049;DHT22;68680;50.764;6.120;2023-11-19T07:47:24;10.70;99.90
79049;DHT22;68680;50.764;6.120;2023-11-19T07:49:50;10.70;99.90
79049;DHT22;68680;50.764;6.120;2023-11-19T07:52:17;10.70;99.90
79049;DHT22;68680;50.764;6.120;2023-11-19T07:54:43;10.70;99.90
79049;DHT22;68680;50.764;6.120;2023-11-19T07:57:08;10.70;99.90
79049;DHT22;68680;50.764;6.120;2023-11-19T07:59:34;10.60;99.90
79049;DHT22;68680;50.764;6.120;2023-11-19T08:02:00;10.60;99.90
79049;DHT22;68680;50.764;6.120;2023-11-19T08:04:25;10.60;99.90
79049;DHT22;68680;50.764;6.120;2023-11-19T08:06:51;10.70;99.90
79049;DHT22;68680;50.764;6.120;2023-11-19T08:09:18;10.70;99.90
79049;DHT22;68680;50.764;6.120;2023-11-19T08:11:43;10.70;99.90
79049;DHT22;68680;50.764;6.120;2023-11-19T08:14:09;10.70;99.90
79049;DHT22;68680;50.764;6.120;2023-11-19T08:16:35;10.70;99.90
79049;DHT22;68680;50.764;6.120;2023-11-19T08:19:00;10.70;99.90
79049;DHT22;68680;50.764;6.120;2023-11-19T08:21:26;10.70;99.90
79049;DHT22;68680;50.764;6.120;2023-11-19T08:23:51;10.80;99.90
79049;DHT22;68680;50.764;6.120;2023-11-19T08:26:18;10.80;99.90
79049;DHT22;68680;50.764;6.120;2023-11-19T08:28:44;10.80;99.90
79049;DHT22;68680;50.764;6.120;2023-11-19T08:31:10;10.80;99.90
79049;DHT22;68680;50.764;6.120;2023-11-19T08:33:35;10.90;99.90
79049;DHT22;68680;50.764;6.120;2023-11-19T08:36:01;10.80;99.90
79049;DHT22;68680;50.764;6.120;2023-11-19T08:38:26;10.80;99.90
79049;DHT22;68680;50.764;6.120;2023-11-19T08:40:52;10.90;99.90
79049;DHT22;68680;50.764;6.120;2023-11-19T08:43:19;10.90;99.90
79049;DHT22;68680;50.764;6.120;2023-11-19T08:45:44;11.00;99.90
79049;DHT22;68680;50.764;6.120;2023-11-19T08:48:10;11.00;99.90
79049;DHT22;68680;50.764;6.120;2023-11-19T08:50:36;11.00;99.90
79049;DHT22;68680;50.764;6.120;2023-11-19T08:53:01;11.00;99.90
79049;DHT22;68680;50.764;6.120;2023-11-19T08:55:27;11.10;99.90
79049;DHT22;68680;50.764;6.120;2023-11-19T08:57:52;11.20;99.90
79049;DHT22;68680;50.764;6.120;2023-11-19T09:00:20;11.20;99.90
79049;DHT22;68680;50.764;6.120;2023-11-19T09:02:45;11.20;99.90
79049;DHT22;68680;50.764;6.120;2023-11-19T09:05:11;11.20;99.90
79049;DHT22;68680;50.764;6.120;2023-11-19T09:07:36;11.20;99.90
79049;DHT22;68680;50.764;6.120;2023-11-19T09:10:02;11.20;99.90
79049;DHT22;68680;50.764;6.120;2023-11-19T09:12:28;11.30;99.90
79049;DHT22;68680;50.764;6.120;2023-11-19T09:14:53;11.40;99.90
79049;DHT22;68680;50.764;6.120;2023-11-19T09:17:20;11.40;99.90
79049;DHT22;68680;50.764;6.120;2023-11-19T09:19:46;11.40;99.90
79049;DHT22;68680;50.764;6.120;2023-11-19T09:22:11;11.40;99.90
79049;DHT22;68680;50.764;6.120;2023-11-19T09:24:37;11.30;99.90
79049;DHT22;68680;50.764;6.120;2023-11-19T09:27:03;11.30;99.90
79049;DHT22;68680;50.764;6.120;2023-11-19T09:29:31;11.30;99.90
79049;DHT22;68680;50.764;6.120;2023-11-19T09:31:57;11.40;99.90
79049;DHT22;68680;50.764;6.120;2023-11-19T09:34:24;11.50;99.90
79049;DHT22;68680;50.764;6.120;2023-11-19T09:36:49;11.50;99.90
79049;DHT22;68680;50.764;6.120;2023-11-19T09:39:15;11.60;99.90
79049;DHT22;68680;50.764;6.120;2023-11-19T09:41:41;11.70;99.90
79049;DHT22;68680;50.764;6.120;2023-11-19T09:44:06;11.70;99.90
79049;DHT22;68680;50.764;6.120;2023-11-19T09:46:33;11.70;99.90
79049;DHT22;68680;50.764;6.120;2023-11-19T09:48:59;11.80;99.90
79049;DHT22;68680;50.764;6.120;2023-11-19T09:51:27;11.80;99.90
79049;DHT22;68680;50.764;6.120;2023-11-19T09:53:53;11.80;99.90
79049;DHT22;68680;50.764;6.120;2023-11-19T09:56:19;11.80;99.90
79049;DHT22;68680;50.764;6.120;2023-11-19T09:58:45;11.80;99.90
79049;DHT22;68680;50.764;6.120;2023-11-19T10:01:10;11.80;99.90
79049;DHT22;68680;50.764;6.120;2023-11-19T10:03:36;11.80;99.90
79049;DHT22;68680;50.764;6.120;2023-11-19T10:06:02;12.00;99.90
79049;DHT22;68680;50.764;6.120;2023-11-19T10:08:29;12.10;99.90
79049;DHT22;68680;50.764;6.120;2023-11-19T10:10:55;12.20;99.90
79049;DHT22;68680;50.764;6.120;2023-11-19T10:13:26;12.20;99.90
79049;DHT22;68680;50.764;6.120;2023-11-19T10:15:52;12.20;99.90
79049;DHT22;68680;50.764;6.120;2023-11-19T10:18:18;12.20;99.90
79049;DHT22;68680;50.764;6.120;2023-11-19T10:20:43;12.20;99.90
79049;DHT22;68680;50.764;6.120;2023-11-19T10:23:09;12.20;99.90
79049;DHT22;68680;50.764;6.120;2023-11-19T10:25:36;12.20;99.90
79049;DHT22;68680;50.764;6.120;2023-11-19T10:28:01;12.20;99.90
79049;DHT22;68680;50.764;6.120;2023-11-19T10:30:28;12.20;99.90
79049;DHT22;68680;50.764;6.120;2023-11-19T10:33:04;12.20;99.90
79049;DHT22;68680;50.764;6.120;2023-11-19T10:35:30;12.40;99.90
79049;DHT22;68680;50.764;6.120;2023-11-19T10:37:59;12.40;99.90
79049;DHT22;68680;50.764;6.120;2023-11-19T10:40:39;12.50;99.90
79049;DHT22;68680;50.764;6.120;2023-11-19T10:43:04;12.50;99.90
79049;DHT22;68680;50.764;6.120;2023-11-19T10:45:30;12.40;99.90
79049;DHT22;68680;50.764;6.120;2023-11-19T10:47:57;12.40;99.90
79049;DHT22;68680;50.764;6.120;2023-11-19T10:50:22;12.40;99.90
79049;DHT22;68680;50.764;6.120;2023-11-19T10:52:48;12.30;99.90
79049;DHT22;68680;50.764;6.120;2023-11-19T10:55:19;12.00;99.90
79049;DHT22;68680;50.764;6.120;2023-11-19T10:57:49;11.60;99.90
79049;DHT22;68680;50.764;6.120;2023-11-19T11:00:18;11.40;99.90
79049;DHT22;68680;50.764;6.120;2023-11-19T11:02:45;11.20;99.90
79049;DHT22;68680;50.764;6.120;2023-11-19T11:05:15;11.20;99.90
79049;DHT22;68680;50.764;6.120;2023-11-19T11:07:42;11.10;99.90
79049;DHT22;68680;50.764;6.120;2023-11-19T11:10:11;11.20;99.90
79049;DHT22;68680;50.764;6.120;2023-11-19T11:12:37;11.30;99.90
79049;DHT22;68680;50.764;6.120;2023-11-19T11:15:05;11.30;99.90
79049;DHT22;68680;50.764;6.120;2023-11-19T11:17:32;11.40;99.90
79049;DHT22;68680;50.764;6.120;2023-11-19T11:19:58;11.40;99.90
79049;DHT22;68680;50.764;6.120;2023-11-19T11:22:24;11.40;99.90
79049;DHT22;68680;50.764;6.120;2023-11-19T11:25:19;11.40;99.90
79049;DHT22;68680;50.764;6.120;2023-11-19T11:27:56;11.50;99.90
79049;DHT22;68680;50.764;6.120;2023-11-19T11:30:31;11.70;99.90
79049;DHT22;68680;50.764;6.120;2023-11-19T11:33:15;11.60;99.90
79049;DHT22;68680;50.764;6.120;2023-11-19T11:35:50;11.60;99.90
79049;DHT22;68680;50.764;6.120;2023-11-19T11:38:21;11.60;99.90
79049;DHT22;68680;50.764;6.120;2023-11-19T11:41:15;11.50;99.90
79049;DHT22;68680;50.764;6.120;2023-11-19T11:43:44;11.50;99.90
79049;DHT22;68680;50.764;6.120;2023-11-19T11:49:14;11.60;99.90
79049;DHT22;68680;50.764;6.120;2023-11-19T11:51:58;11.70;99.90
79049;DHT22;68680;50.764;6.120;2023-11-19T11:54:28;11.70;99.90
79049;DHT22;68680;50.764;6.120;2023-11-19T11:57:05;11.60;99.90
79049;DHT22;68680;50.764;6.120;2023-11-19T11:59:37;11.70;99.90
79049;DHT22;68680;50.764;6.120;2023-11-19T12:02:08;11.80;99.90
79049;DHT22;68680;50.764;6.120;2023-11-19T12:04:34;11.90;99.90
79049;DHT22;68680;50.764;6.120;2023-11-19T12:07:04;12.00;99.90
79049;DHT22;68680;50.764;6.120;2023-11-19T12:09:29;12.00;99.90
79049;DHT22;68680;50.764;6.120;2023-11-19T12:12:11;12.10;99.90
79049;DHT22;68680;50.764;6.120;2023-11-19T12:15:02;12.10;99.90
79049;DHT22;68680;50.764;6.120;2023-11-19T12:17:47;12.20;99.90
79049;DHT22;68680;50.764;6.120;2023-11-19T12:20:13;12.30;99.90
79049;DHT22;68680;50.764;6.120;2023-11-19T12:22:40;12.30;99.90
79049;DHT22;68680;50.764;6.120;2023-11-19T12:25:09;12.30;99.90
79049;DHT22;68680;50.764;6.120;2023-11-19T12:27:34;12.40;99.90
79049;DHT22;68680;50.764;6.120;2023-11-19T12:30:00;12.30;99.90
79049;DHT22;68680;50.764;6.120;2023-11-19T12:32:26;12.20;99.90
79049;DHT22;68680;50.764;6.120;2023-11-19T12:34:53;12.00;99.90
79049;DHT22;68680;50.764;6.120;2023-11-19T12:37:18;12.10;99.90
79049;DHT22;68680;50.764;6.120;2023-11-19T12:39:44;12.20;99.90
79049;DHT22;68680;50.764;6.120;2023-11-19T12:42:10;12.30;99.90
79049;DHT22;68680;50.764;6.120;2023-11-19T12:44:35;12.40;99.90
79049;DHT22;68680;50.764;6.120;2023-11-19T12:47:02;12.40;99.90
79049;DHT22;68680;50.764;6.120;2023-11-19T12:49:28;12.40;99.90
79049;DHT22;68680;50.764;6.120;2023-11-19T12:51:55;12.30;99.90
79049;DHT22;68680;50.764;6.120;2023-11-19T12:54:32;12.30;99.90
79049;DHT22;68680;50.764;6.120;2023-11-19T12:56:57;12.20;99.90
79049;DHT22;68680;50.764;6.120;2023-11-19T12:59:23;12.20;99.90
79049;DHT22;68680;50.764;6.120;2023-11-19T13:01:54;12.30;99.90
79049;DHT22;68680;50.764;6.120;2023-11-19T13:04:20;12.30;99.90
79049;DHT22;68680;50.764;6.120;2023-11-19T13:06:46;12.30;99.90
79049;DHT22;68680;50.764;6.120;2023-11-19T13:09:22;12.30;99.90
79049;DHT22;68680;50.764;6.120;2023-11-19T13:11:48;12.20;99.90
79049;DHT22;68680;50.764;6.120;2023-11-19T13:14:14;12.20;99.90
79049;DHT22;68680;50.764;6.120;2023-11-19T13:16:39;12.20;99.90
79049;DHT22;68680;50.764;6.120;2023-11-19T13:19:05;12.10;99.90
79049;DHT22;68680;50.764;6.120;2023-11-19T13:21:30;12.30;99.90
79049;DHT22;68680;50.764;6.120;2023-11-19T13:23:56;12.40;99.90
79049;DHT22;68680;50.764;6.120;2023-11-19T13:26:23;12.40;99.90
79049;DHT22;68680;50.764;6.120;2023-11-19T13:28:49;12.60;99.90
79049;DHT22;68680;50.764;6.120;2023-11-19T13:31:14;12.70;99.90
79049;DHT22;68680;50.764;6.120;2023-11-19T13:33:40;12.80;99.90
79049;DHT22;68680;50.764;6.120;2023-11-19T13:36:07;12.80;99.90
79049;DHT22;68680;50.764;6.120;2023-11-19T13:38:33;12.80;99.90
79049;DHT22;68680;50.764;6.120;2023-11-19T13:40:58;12.70;99.90
79049;DHT22;68680;50.764;6.120;2023-11-19T13:43:25;12.60;99.90
79049;DHT22;68680;50.764;6.120;2023-11-19T13:45:51;12.50;99.90
79049;DHT22;68680;50.764;6.120;2023-11-19T13:48:17;12.50;99.90
79049;DHT22;68680;50.764;6.120;2023-11-19T13:50:42;12.50;99.90
79049;DHT22;68680;50.764;6.120;2023-11-19T13:53:08;12.40;99.90
79049;DHT22;68680;50.764;6.120;2023-11-19T13:55:33;12.40;99.90
79049;DHT22;68680;50.764;6.120;2023-11-19T13:57:59;12.40;99.90
79049;DHT22;68680;50.764;6.120;2023-11-19T14:00:26;12.50;99.90
79049;DHT22;68680;50.764;6.120;2023-11-19T14:02:51;12.50;99.90
79049;DHT22;68680;50.764;6.120;2023-11-19T14:05:17;12.50;99.90
79049;DHT22;68680;50.764;6.120;2023-11-19T14:07:43;12.30;99.90
79049;DHT22;68680;50.764;6.120;2023-11-19T14:10:10;12.20;99.90
79049;DHT22;68680;50.764;6.120;2023-11-19T14:12:35;12.00;99.90
79049;DHT22;68680;50.764;6.120;2023-11-19T14:15:01;12.00;99.90
79049;DHT22;68680;50.764;6.120;2023-11-19T14:17:28;12.00;99.90
79049;DHT22;68680;50.764;6.120;2023-11-19T14:19:53;11.90;99.90
79049;DHT22;68680;50.764;6.120;2023-11-19T14:22:19;11.90;99.90
79049;DHT22;68680;50.764;6.120;2023-11-19T14:24:45;11.80;99.90
79049;DHT22;68680;50.764;6.120;2023-11-19T14:27:10;11.60;99.90
79049;DHT22;68680;50.764;6.120;2023-11-19T14:29:36;11.50;99.90
79049;DHT22;68680;50.764;6.120;2023-11-19T14:32:02;11.50;99.90
79049;DHT22;68680;50.764;6.120;2023-11-19T14:34:29;11.60;99.90
79049;DHT22;68680;50.764;6.120;2023-11-19T14:36:55;11.60;99.90
79049;DHT22;68680;50.764;6.120;2023-11-19T14:39:21;11.60;99.90
79049;DHT22;68680;50.764;6.120;2023-11-19T14:41:46;11.50;99.90
79049;DHT22;68680;50.764;6.120;2023-11-19T14:44:12;11.50;99.90
79049;DHT22;68680;50.764;6.120;2023-11-19T14:46:38;11.50;99.90
79049;DHT22;68680;50.764;6.120;2023-11-19T14:49:03;11.60;99.90
79049;DHT22;68680;50.764;6.120;2023-11-19T14:51:30;11.60;99.90
79049;DHT22;68680;50.764;6.120;2023-11-19T14:53:56;11.60;99.90
79049;DHT22;68680;50.764;6.120;2023-11-19T14:56:22;11.60;99.90
79049;DHT22;68680;50.764;6.120;2023-11-19T14:58:47;11.60;99.90
79049;DHT22;68680;50.764;6.120;2023-11-19T15:01:13;11.60;99.90
79049;DHT22;68680;50.764;6.120;2023-11-19T15:03:39;11.50;99.90
79049;DHT22;68680;50.764;6.120;2023-11-19T15:06:05;11.40;99.90
79049;DHT22;68680;50.764;6.120;2023-11-19T15:08:32;11.30;99.90
79049;DHT22;68680;50.764;6.120;2023-11-19T15:10:58;11.30;99.90
79049;DHT22;68680;50.764;6.120;2023-11-19T15:13:24;11.30;99.90
79049;DHT22;68680;50.764;6.120;2023-11-19T15:15:49;11.30;99.90
79049;DHT22;68680;50.764;6.120;2023-11-19T15:18:15;11.30;99.90
79049;DHT22;68680;50.764;6.120;2023-11-19T15:20:41;11.30;99.90
79049;DHT22;68680;50.764;6.120;2023-11-19T15:23:06;11.30;99.90
79049;DHT22;68680;50.764;6.120;2023-11-19T15:25:33;11.20;99.90
79049;DHT22;68680;50.764;6.120;2023-11-19T15:27:59;11.20;99.90